createdAt,value
2019-05-18T00:00:59.803Z,4.30
2019-05-18T00:03:26.597Z,3.50
2019-05-18T00:05:53.436Z,3.10
2019-05-18T00:08:20.237Z,3.47
2019-05-18T00:10:47.076Z,3.60
2019-05-18T00:13:13.860Z,3.60
2019-05-18T00:15:40.696Z,3.27
2019-05-18T00:18:07.481Z,3.52
2019-05-18T00:20:34.314Z,4.00
2019-05-18T00:23:01.145Z,4.10
2019-05-18T00:25:27.972Z,3.50
2019-05-18T00:27:54.809Z,3.85
2019-05-18T00:30:22.135Z,3.20
2019-05-18T00:32:48.916Z,3.55
2019-05-18T00:35:16.783Z,3.05
2019-05-18T00:37:43.772Z,3.40
2019-05-18T00:40:10.709Z,3.80
2019-05-18T00:42:37.501Z,3.00
2019-05-18T00:45:06.244Z,3.50
2019-05-18T00:47:41.510Z,3.00
2019-05-18T00:50:01.779Z,3.22
2019-05-18T00:52:28.681Z,3.22
2019-05-18T00:54:55.525Z,3.30
2019-05-18T00:57:22.309Z,3.70
2019-05-18T00:59:49.145Z,3.20
2019-05-18T01:02:16.340Z,3.20
2019-05-18T01:04:43.116Z,3.60
2019-05-18T01:07:09.893Z,3.00
2019-05-18T01:09:36.736Z,3.10
2019-05-18T01:12:03.584Z,3.00
2019-05-18T01:14:30.381Z,3.75
2019-05-18T01:16:57.308Z,3.60
2019-05-18T01:19:24.092Z,3.30
2019-05-18T01:21:50.911Z,3.50
2019-05-18T01:24:17.753Z,3.40
2019-05-18T01:26:44.532Z,3.30
2019-05-18T01:29:11.316Z,3.00
2019-05-18T01:31:38.261Z,3.65
2019-05-18T01:34:05.093Z,3.17
2019-05-18T01:36:31.881Z,3.02
2019-05-18T01:38:58.761Z,3.40
2019-05-18T01:41:25.536Z,2.70
2019-05-18T01:43:52.376Z,3.17
2019-05-18T01:46:19.267Z,3.00
2019-05-18T01:48:46.076Z,3.77
2019-05-18T01:51:12.860Z,3.50
2019-05-18T01:53:39.709Z,3.60
2019-05-18T01:56:06.548Z,3.22
2019-05-18T01:58:33.341Z,3.40
2019-05-18T02:01:00.126Z,3.33
2019-05-18T02:03:27.016Z,3.05
2019-05-18T02:05:53.792Z,3.22
2019-05-18T02:08:20.689Z,3.25
2019-05-18T02:10:47.559Z,2.83
2019-05-18T02:13:14.337Z,3.27
2019-05-18T02:15:41.178Z,3.00
2019-05-18T02:18:07.956Z,3.10
2019-05-18T02:20:34.825Z,2.90
2019-05-18T02:23:01.670Z,2.63
2019-05-18T02:25:28.493Z,2.92
2019-05-18T02:27:55.321Z,3.15
2019-05-18T02:30:22.105Z,2.92
2019-05-18T02:32:48.957Z,3.20
2019-05-18T02:35:15.735Z,3.40
2019-05-18T02:37:42.565Z,3.40
2019-05-18T02:40:09.512Z,3.12
2019-05-18T02:42:36.394Z,3.80
2019-05-18T02:45:05.634Z,3.20
2019-05-18T02:47:32.461Z,3.25
2019-05-18T02:49:59.297Z,3.10
2019-05-18T02:52:26.131Z,3.50
2019-05-18T02:54:52.969Z,3.00
2019-05-18T02:57:19.806Z,3.58
2019-05-18T02:59:46.642Z,2.70
2019-05-18T03:02:13.534Z,3.00
2019-05-18T03:04:40.317Z,3.30
2019-05-18T03:07:07.160Z,2.60
2019-05-18T03:09:33.990Z,2.77
2019-05-18T03:12:00.834Z,3.00
2019-05-18T03:14:27.619Z,2.90
2019-05-18T03:16:54.504Z,3.10
2019-05-18T03:19:21.411Z,3.20
2019-05-18T03:21:48.490Z,3.25
2019-05-18T03:24:15.330Z,3.00
2019-05-18T03:26:42.113Z,3.30
2019-05-18T03:29:08.933Z,3.33
2019-05-18T03:31:35.719Z,3.45
2019-05-18T03:34:02.574Z,3.52
2019-05-18T03:36:29.421Z,3.35
2019-05-18T03:38:56.198Z,3.80
2019-05-18T03:41:23.040Z,2.87
2019-05-18T03:43:49.874Z,3.40
2019-05-18T03:46:16.721Z,3.40
2019-05-18T03:48:43.496Z,3.10
2019-05-18T03:51:10.338Z,3.22
2019-05-18T03:53:37.129Z,2.90
2019-05-18T03:56:03.965Z,3.20
2019-05-18T03:58:30.753Z,3.37
2019-05-18T04:00:57.605Z,3.58
2019-05-18T04:03:24.485Z,4.10
2019-05-18T04:05:51.280Z,4.10
2019-05-18T04:08:18.106Z,3.40
2019-05-18T04:10:44.948Z,3.60
2019-05-18T04:13:11.729Z,3.70
2019-05-18T04:15:39.169Z,3.30
2019-05-18T04:18:05.944Z,3.10
2019-05-18T04:20:32.960Z,3.50
2019-05-18T04:22:59.795Z,3.20
2019-05-18T04:25:26.577Z,3.70
2019-05-18T04:27:53.434Z,3.70
2019-05-18T04:30:20.217Z,4.00
2019-05-18T04:32:47.064Z,3.60
2019-05-18T04:35:14.948Z,3.15
2019-05-18T04:37:41.745Z,3.77
2019-05-18T04:40:10.401Z,3.30
2019-05-18T04:42:37.233Z,3.50
2019-05-18T04:45:04.919Z,3.10
2019-05-18T04:47:31.751Z,3.40
2019-05-18T04:50:05.425Z,3.70
2019-05-18T04:52:27.296Z,3.50
2019-05-18T04:54:54.123Z,3.60
2019-05-18T04:57:20.909Z,3.42
2019-05-18T04:59:47.737Z,3.47
2019-05-18T05:02:14.581Z,3.40
2019-05-18T05:04:41.418Z,3.30
2019-05-18T05:07:08.250Z,4.08
2019-05-18T05:09:35.084Z,3.90
2019-05-18T05:12:01.877Z,3.20
2019-05-18T05:14:28.721Z,3.20
2019-05-18T05:16:55.499Z,4.20
2019-05-18T05:19:22.334Z,3.58
2019-05-18T05:21:49.120Z,3.22
2019-05-18T05:24:15.968Z,3.60
2019-05-18T05:26:42.748Z,3.50
2019-05-18T05:29:09.582Z,3.87
2019-05-18T05:31:36.368Z,4.27
2019-05-18T05:34:03.206Z,4.50
2019-05-18T05:36:30.597Z,3.60
2019-05-18T05:38:57.428Z,4.50
2019-05-18T05:41:24.270Z,3.98
2019-05-18T05:43:51.048Z,4.50
2019-05-18T05:46:17.876Z,4.67
2019-05-18T05:48:44.713Z,4.42
2019-05-18T05:51:11.505Z,4.45
2019-05-18T05:53:38.329Z,4.78
2019-05-18T05:56:05.108Z,4.80
2019-05-18T05:58:31.944Z,5.20
2019-05-18T06:00:58.724Z,4.90
2019-05-18T06:03:25.557Z,5.00
2019-05-18T06:05:52.396Z,4.50
2019-05-18T06:08:20.345Z,5.30
2019-05-18T06:10:47.124Z,5.50
2019-05-18T06:13:13.909Z,4.20
2019-05-18T06:15:40.761Z,4.70
2019-05-18T06:18:07.545Z,5.00
2019-05-18T06:20:34.345Z,4.65
2019-05-18T06:23:01.185Z,4.75
2019-05-18T06:25:28.037Z,4.75
2019-05-18T06:27:54.809Z,4.97
2019-05-18T06:30:21.698Z,4.60
2019-05-18T06:32:48.532Z,4.60
2019-05-18T06:35:15.312Z,5.10
2019-05-18T06:37:42.096Z,5.35
2019-05-18T06:40:08.928Z,4.70
2019-05-18T06:42:35.963Z,5.25
2019-05-18T06:45:05.565Z,4.70
2019-05-18T06:47:32.344Z,5.00
2019-05-18T06:49:59.148Z,5.40
2019-05-18T06:52:25.989Z,5.10
2019-05-18T06:54:52.773Z,5.37
2019-05-18T06:57:20.509Z,4.90
2019-05-18T06:59:48.105Z,5.63
2019-05-18T07:02:15.012Z,5.60
2019-05-18T07:04:44.481Z,5.40
2019-05-18T07:07:10.384Z,6.20
2019-05-18T07:09:37.220Z,6.28
2019-05-18T07:12:04.093Z,5.77
2019-05-18T07:14:30.928Z,5.33
2019-05-18T07:16:57.792Z,6.10
2019-05-18T07:19:24.568Z,6.15
2019-05-18T07:21:51.422Z,6.60
2019-05-18T07:24:18.208Z,6.25
2019-05-18T07:26:45.040Z,6.37
2019-05-18T07:29:11.829Z,6.80
2019-05-18T07:31:38.680Z,6.75
2019-05-18T07:34:05.512Z,6.75
2019-05-18T07:36:32.868Z,7.42
2019-05-18T07:38:59.864Z,7.20
2019-05-18T07:41:26.665Z,7.65
2019-05-18T07:43:53.532Z,7.47
2019-05-18T07:46:20.525Z,7.90
2019-05-18T07:48:47.373Z,6.70
2019-05-18T07:51:14.212Z,6.83
2019-05-18T07:53:41.040Z,7.33
2019-05-18T07:56:07.841Z,7.80
2019-05-18T07:58:34.746Z,6.70
2019-05-18T08:01:01.613Z,8.13
2019-05-18T08:03:28.508Z,7.40
2019-05-18T08:05:55.352Z,7.67
2019-05-18T08:08:22.137Z,7.20
2019-05-18T08:10:49.477Z,6.20
2019-05-18T08:13:16.335Z,7.40
2019-05-18T08:15:43.112Z,7.33
2019-05-18T08:18:10.105Z,7.42
2019-05-18T08:20:36.946Z,8.10
2019-05-18T08:23:03.719Z,7.72
2019-05-18T08:25:30.639Z,8.10
2019-05-18T08:27:57.488Z,7.10
2019-05-18T08:30:24.544Z,6.78
2019-05-18T08:32:51.376Z,6.72
2019-05-18T08:35:18.176Z,6.60
2019-05-18T08:37:44.980Z,6.65
2019-05-18T08:40:11.992Z,6.80
2019-05-18T08:42:38.764Z,6.10
2019-05-18T08:45:10.380Z,6.50
2019-05-18T08:47:37.289Z,6.80
2019-05-18T08:50:05.168Z,6.62
2019-05-18T08:52:31.958Z,6.60
2019-05-18T08:54:58.797Z,5.70
2019-05-18T08:57:25.606Z,6.60
2019-05-18T08:59:52.454Z,7.10
2019-05-18T09:02:19.245Z,6.60
2019-05-18T09:04:46.025Z,7.70
2019-05-18T09:07:12.877Z,6.40
2019-05-18T09:09:39.661Z,8.20
2019-05-18T09:12:06.605Z,7.45
2019-05-18T09:14:33.401Z,7.90
2019-05-18T09:17:00.227Z,7.03
2019-05-18T09:19:27.077Z,7.30
2019-05-18T09:21:53.948Z,7.90
2019-05-18T09:24:20.780Z,7.75
2019-05-18T09:26:47.560Z,7.20
2019-05-18T09:29:14.401Z,7.30
2019-05-18T09:31:41.799Z,7.70
2019-05-18T09:34:08.633Z,6.70
2019-05-18T09:36:35.413Z,6.17
2019-05-18T09:39:03.277Z,6.05
2019-05-18T09:41:30.069Z,7.12
2019-05-18T09:43:56.910Z,6.85
2019-05-18T09:46:23.708Z,5.87
2019-05-18T09:48:50.552Z,6.28
2019-05-18T09:51:17.452Z,5.28
2019-05-18T09:53:51.407Z,5.85
2019-05-18T09:56:12.931Z,4.87
2019-05-18T09:58:39.760Z,4.95
2019-05-18T10:01:06.575Z,5.10
2019-05-18T10:03:33.437Z,5.03
2019-05-18T10:06:00.229Z,5.40
2019-05-18T10:08:27.876Z,5.53
2019-05-18T10:10:54.668Z,6.35
2019-05-18T10:13:21.514Z,5.22
2019-05-18T10:15:48.321Z,4.60
2019-05-18T10:18:15.167Z,5.17
2019-05-18T10:20:41.967Z,4.67
2019-05-18T10:23:12.725Z,5.05
2019-05-18T10:25:37.405Z,6.25
2019-05-18T10:28:04.244Z,4.97
2019-05-18T10:30:31.030Z,5.87
2019-05-18T10:32:57.867Z,5.83
2019-05-18T10:35:24.660Z,5.20
2019-05-18T10:37:51.494Z,5.93
2019-05-18T10:40:18.997Z,5.10
2019-05-18T10:42:45.792Z,5.30
2019-05-18T10:45:12.924Z,4.80
2019-05-18T10:47:39.768Z,5.30
2019-05-18T10:50:06.856Z,4.60
2019-05-18T10:52:33.685Z,4.72
2019-05-18T10:55:00.499Z,14.50
2019-05-18T10:57:27.360Z,4.90
2019-05-18T10:59:55.152Z,4.50
2019-05-18T11:02:22.039Z,5.40
2019-05-18T11:04:48.876Z,5.58
2019-05-18T11:07:15.721Z,4.00
2019-05-18T11:09:43.577Z,3.40
2019-05-18T11:12:10.420Z,3.60
2019-05-18T11:14:37.308Z,3.65
2019-05-18T11:17:04.124Z,3.30
2019-05-18T11:19:30.905Z,2.98
2019-05-18T11:21:57.732Z,2.90
2019-05-18T11:24:24.514Z,6.25
2019-05-18T11:26:51.355Z,4.00
2019-05-18T11:29:21.677Z,3.50
2019-05-18T11:31:46.836Z,3.17
2019-05-18T11:34:13.911Z,3.50
2019-05-18T11:36:40.780Z,2.70
2019-05-18T11:39:07.632Z,2.40
2019-05-18T11:41:35.141Z,1.90
2019-05-18T11:44:02.909Z,1.47
2019-05-18T11:46:29.738Z,1.75
2019-05-18T11:48:56.593Z,1.50
2019-05-18T11:51:24.091Z,1.40
2019-05-18T11:53:58.200Z,1.57
2019-05-18T11:56:19.541Z,1.30
2019-05-18T11:58:46.317Z,1.30
2019-05-18T12:01:13.168Z,1.40
2019-05-18T12:03:40.013Z,1.10
2019-05-18T12:06:07.400Z,1.35
2019-05-18T12:08:34.237Z,1.20
2019-05-18T12:11:01.081Z,1.07
2019-05-18T12:13:27.869Z,1.22
2019-05-18T12:15:54.705Z,1.10
2019-05-18T12:18:21.653Z,1.30
2019-05-18T12:20:48.438Z,0.90
2019-05-18T12:23:15.363Z,1.00
2019-05-18T12:25:42.197Z,0.90
2019-05-18T12:28:09.087Z,1.00
2019-05-18T12:30:35.852Z,1.10
2019-05-18T12:33:02.638Z,1.00
2019-05-18T12:35:29.481Z,1.30
2019-05-18T12:37:56.266Z,1.05
2019-05-18T12:40:23.400Z,1.10
2019-05-18T12:42:50.216Z,1.00
2019-05-18T12:45:17.497Z,1.30
2019-05-18T12:47:44.343Z,1.10
2019-05-18T12:50:12.580Z,0.98
2019-05-18T12:52:39.428Z,1.00
2019-05-18T12:55:06.593Z,1.10
2019-05-18T12:57:34.117Z,0.70
2019-05-18T13:00:00.900Z,1.10
2019-05-18T13:02:27.756Z,0.80
2019-05-18T13:04:54.745Z,2.87
2019-05-18T13:07:21.689Z,1.20
2019-05-18T13:09:48.744Z,1.00
2019-05-18T13:12:15.680Z,1.20
2019-05-18T13:14:42.522Z,1.27
2019-05-18T13:17:09.397Z,0.85
2019-05-18T13:19:36.237Z,0.70
2019-05-18T13:22:03.164Z,0.90
2019-05-18T13:24:44.217Z,1.10
2019-05-18T13:26:58.625Z,0.90
2019-05-18T13:29:25.477Z,0.98
2019-05-18T13:31:52.268Z,1.30
2019-05-18T13:34:19.112Z,1.00
2019-05-18T13:36:45.897Z,0.80
2019-05-18T13:39:12.745Z,0.90
2019-05-18T13:41:39.551Z,0.90
2019-05-18T13:44:06.385Z,1.07
2019-05-18T13:46:33.427Z,1.20
2019-05-18T13:49:00.275Z,1.10
2019-05-18T13:51:27.052Z,1.20
2019-05-18T13:53:53.894Z,1.00
2019-05-18T13:56:20.750Z,0.90
2019-05-18T13:58:47.529Z,0.90
2019-05-18T14:01:14.369Z,1.22
2019-05-18T14:03:41.202Z,1.20
2019-05-18T14:06:08.041Z,1.20
2019-05-18T14:08:34.888Z,1.00
2019-05-18T14:11:01.724Z,2.02
2019-05-18T14:13:28.509Z,1.70
2019-05-18T14:15:55.456Z,1.37
2019-05-18T14:18:22.316Z,1.30
2019-05-18T14:20:49.165Z,1.30
2019-05-18T14:23:16.008Z,1.30
2019-05-18T14:25:45.716Z,1.12
2019-05-18T14:28:11.440Z,1.30
2019-05-18T14:30:38.250Z,1.92
2019-05-18T14:33:05.105Z,1.40
2019-05-18T14:35:33.521Z,1.17
2019-05-18T14:38:00.826Z,1.95
2019-05-18T14:40:27.665Z,1.20
2019-05-18T14:42:54.453Z,1.20
2019-05-18T14:45:21.331Z,1.20
2019-05-18T14:47:48.114Z,1.40
2019-05-18T14:50:15.400Z,1.52
2019-05-18T14:52:42.262Z,1.30
2019-05-18T14:55:09.597Z,1.35
2019-05-18T14:57:36.433Z,2.90
2019-05-18T15:00:06.346Z,2.87
2019-05-18T15:02:33.145Z,5.60
2019-05-18T15:05:00.072Z,2.02
2019-05-18T15:07:26.871Z,1.75
2019-05-18T15:09:53.770Z,2.30
2019-05-18T15:12:20.690Z,1.85
2019-05-18T15:14:47.471Z,1.20
2019-05-18T15:17:14.316Z,1.30
2019-05-18T15:19:41.153Z,2.50
2019-05-18T15:22:07.977Z,1.20
2019-05-18T15:24:34.809Z,3.62
2019-05-18T15:27:01.685Z,1.30
2019-05-18T15:29:28.548Z,1.30
2019-05-18T15:31:55.446Z,1.60
2019-05-18T15:34:22.197Z,1.75
2019-05-18T15:36:49.036Z,1.07
2019-05-18T15:39:15.831Z,1.53
2019-05-18T15:41:42.734Z,1.30
2019-05-18T15:44:09.518Z,1.30
2019-05-18T15:46:36.300Z,1.27
2019-05-18T15:49:04.002Z,1.10
2019-05-18T15:51:30.912Z,1.15
2019-05-18T15:53:57.687Z,1.20
2019-05-18T15:56:24.557Z,1.00
2019-05-18T15:58:51.704Z,1.40
2019-05-18T16:01:18.542Z,1.20
2019-05-18T16:03:45.396Z,1.00
2019-05-18T16:06:12.214Z,1.00
2019-05-18T16:08:39.013Z,1.10
2019-05-18T16:11:05.853Z,1.30
2019-05-18T16:13:32.638Z,1.00
2019-05-18T16:15:59.480Z,1.32
2019-05-18T16:18:26.313Z,1.25
2019-05-18T16:20:53.149Z,2.65
2019-05-18T16:23:19.985Z,1.10
2019-05-18T16:25:46.774Z,1.40
2019-05-18T16:28:13.614Z,1.40
2019-05-18T16:30:40.402Z,1.10
2019-05-18T16:33:07.246Z,1.07
2019-05-18T16:35:34.033Z,0.90
2019-05-18T16:38:00.874Z,1.00
2019-05-18T16:40:27.705Z,1.30
2019-05-18T16:42:54.537Z,1.20
2019-05-18T16:45:21.405Z,1.17
2019-05-18T16:47:48.184Z,0.70
2019-05-18T16:50:15.070Z,1.20
2019-05-18T16:52:41.906Z,1.10
2019-05-18T16:55:09.525Z,1.00
2019-05-18T16:57:36.370Z,1.10
2019-05-18T17:00:09.871Z,1.00
2019-05-18T17:02:36.926Z,1.10
2019-05-18T17:05:06.500Z,0.93
2019-05-18T17:07:33.332Z,1.30
2019-05-18T17:10:00.533Z,1.00
2019-05-18T17:12:27.329Z,1.20
2019-05-18T17:14:54.189Z,1.00
2019-05-18T17:17:20.984Z,0.90
2019-05-18T17:19:47.929Z,1.00
2019-05-18T17:22:14.806Z,0.90
2019-05-18T17:24:41.712Z,1.05
2019-05-18T17:27:08.662Z,0.90
2019-05-18T17:29:35.649Z,1.00
2019-05-18T17:32:02.575Z,1.27
2019-05-18T17:34:29.540Z,2.30
2019-05-18T17:36:56.810Z,2.77
2019-05-18T17:39:23.759Z,1.80
2019-05-18T17:41:50.668Z,1.10
2019-05-18T17:44:17.620Z,1.17
2019-05-18T17:46:44.552Z,1.10
2019-05-18T17:49:25.979Z,1.10
2019-05-18T17:51:39.978Z,1.10
2019-05-18T17:54:06.756Z,1.20
2019-05-18T17:56:33.592Z,1.20
2019-05-18T17:59:00.436Z,1.20
2019-05-18T18:01:27.332Z,1.30
2019-05-18T18:03:54.124Z,1.20
2019-05-18T18:06:21.018Z,1.20
2019-05-18T18:08:47.806Z,1.10
2019-05-18T18:11:14.644Z,1.40
2019-05-18T18:13:41.428Z,1.30
2019-05-18T18:16:08.285Z,1.20
2019-05-18T18:18:35.146Z,1.30
2019-05-18T18:21:01.959Z,1.47
2019-05-18T18:23:28.801Z,1.40
2019-05-18T18:25:55.585Z,1.70
2019-05-18T18:28:22.455Z,1.40
2019-05-18T18:30:49.283Z,1.62
2019-05-18T18:33:16.233Z,1.40
2019-05-18T18:35:43.013Z,1.40
2019-05-18T18:38:09.859Z,2.10
2019-05-18T18:40:36.733Z,1.80
2019-05-18T18:43:03.494Z,2.30
2019-05-18T18:45:30.333Z,1.60
2019-05-18T18:47:57.129Z,1.70
2019-05-18T18:50:23.980Z,1.50
2019-05-18T18:52:50.814Z,1.60
2019-05-18T18:55:17.653Z,1.67
2019-05-18T18:57:44.488Z,1.50
2019-05-18T19:00:12.961Z,1.60
2019-05-18T19:02:39.859Z,1.70
2019-05-18T19:05:07.750Z,1.80
2019-05-18T19:07:34.613Z,1.50
2019-05-18T19:10:01.454Z,1.60
2019-05-18T19:12:28.240Z,2.70
2019-05-18T19:14:55.078Z,5.93
2019-05-18T19:17:21.906Z,6.93
2019-05-18T19:19:48.737Z,4.30
2019-05-18T19:22:15.531Z,3.12
2019-05-18T19:24:42.394Z,2.40
2019-05-18T19:27:09.215Z,2.00
2019-05-18T19:29:36.045Z,1.80
2019-05-18T19:32:02.896Z,2.70
2019-05-18T19:34:29.737Z,8.00
2019-05-18T19:36:56.570Z,8.93
2019-05-18T19:39:23.349Z,9.88
2019-05-18T19:41:50.178Z,9.93
2019-05-18T19:44:17.011Z,9.23
2019-05-18T19:46:43.877Z,7.40
2019-05-18T19:49:10.661Z,4.03
2019-05-18T19:51:37.437Z,3.80
2019-05-18T19:54:04.305Z,3.07
2019-05-18T19:56:38.304Z,3.80
2019-05-18T19:58:59.718Z,2.70
2019-05-18T20:01:26.506Z,2.40
2019-05-18T20:03:53.345Z,2.50
2019-05-18T20:06:20.130Z,2.00
2019-05-18T20:08:47.009Z,2.30
2019-05-18T20:11:13.797Z,2.35
2019-05-18T20:13:40.637Z,2.70
2019-05-18T20:16:07.429Z,2.40
2019-05-18T20:18:34.277Z,3.20
2019-05-18T20:21:01.068Z,3.00
2019-05-18T20:23:27.918Z,3.17
2019-05-18T20:25:54.696Z,3.30
2019-05-18T20:28:24.019Z,4.00
2019-05-18T20:30:50.137Z,2.97
2019-05-18T20:33:16.979Z,2.60
2019-05-18T20:35:43.808Z,2.70
2019-05-18T20:38:10.605Z,2.60
2019-05-18T20:40:37.436Z,2.80
2019-05-18T20:43:04.231Z,2.80
2019-05-18T20:45:31.095Z,3.30
2019-05-18T20:47:57.881Z,2.83
2019-05-18T20:50:24.724Z,2.90
2019-05-18T20:52:51.509Z,2.90
2019-05-18T20:55:18.344Z,3.20
2019-05-18T20:57:45.262Z,2.80
2019-05-18T21:00:14.581Z,2.90
2019-05-18T21:02:41.418Z,2.65
2019-05-18T21:05:08.416Z,2.90
2019-05-18T21:07:35.297Z,2.90
2019-05-18T21:10:02.533Z,2.50
2019-05-18T21:12:29.313Z,3.20
2019-05-18T21:14:56.137Z,3.83
2019-05-18T21:17:22.979Z,4.00
2019-05-18T21:19:49.831Z,4.42
2019-05-18T21:22:16.622Z,3.50
2019-05-18T21:24:43.474Z,2.90
2019-05-18T21:27:10.296Z,2.72
2019-05-18T21:29:37.095Z,2.80
2019-05-18T21:32:04.005Z,2.80
2019-05-18T21:34:30.853Z,3.00
2019-05-18T21:36:57.664Z,2.87
2019-05-18T21:39:24.436Z,2.60
2019-05-18T21:41:51.299Z,2.80
2019-05-18T21:44:18.157Z,2.90
2019-05-18T21:46:44.942Z,3.00
2019-05-18T21:49:11.826Z,2.65
2019-05-18T21:51:38.673Z,2.90
2019-05-18T21:54:05.513Z,3.10
2019-05-18T21:56:32.356Z,2.85
2019-05-18T21:59:11.028Z,3.50
2019-05-18T22:01:27.807Z,3.70
2019-05-18T22:03:54.589Z,3.80
2019-05-18T22:06:21.440Z,4.20
2019-05-18T22:08:48.284Z,3.98
2019-05-18T22:11:15.065Z,4.30
2019-05-18T22:13:41.919Z,4.10
2019-05-18T22:16:08.714Z,3.77
2019-05-18T22:18:35.556Z,3.67
2019-05-18T22:21:02.383Z,4.50
2019-05-18T22:23:29.195Z,3.90
2019-05-18T22:25:57.178Z,3.98
2019-05-18T22:28:24.227Z,4.00
2019-05-18T22:30:51.053Z,4.10
2019-05-18T22:33:17.888Z,4.10
2019-05-18T22:35:44.708Z,4.90
2019-05-18T22:38:11.504Z,4.60
2019-05-18T22:40:38.346Z,4.70
2019-05-18T22:43:05.168Z,4.60
2019-05-18T22:45:32.013Z,4.72
2019-05-18T22:47:58.850Z,5.30
2019-05-18T22:50:25.684Z,5.00
2019-05-18T22:52:52.496Z,5.00
2019-05-18T22:55:19.333Z,4.45
2019-05-18T22:57:46.125Z,4.83
2019-05-18T23:00:16.010Z,4.90
2019-05-18T23:02:42.860Z,4.08
2019-05-18T23:05:09.765Z,4.60
2019-05-18T23:07:36.933Z,5.00
2019-05-18T23:10:05.221Z,4.75
2019-05-18T23:12:32.088Z,5.65
2019-05-18T23:14:58.923Z,5.47
2019-05-18T23:17:25.764Z,4.80
2019-05-18T23:19:52.612Z,3.80
2019-05-18T23:22:19.403Z,3.92
2019-05-18T23:24:46.236Z,4.10
2019-05-18T23:27:13.073Z,4.28
2019-05-18T23:29:39.859Z,4.58
2019-05-18T23:32:06.705Z,4.78
2019-05-18T23:34:33.480Z,4.30
2019-05-18T23:37:00.321Z,4.17
2019-05-18T23:39:27.100Z,4.10
2019-05-18T23:41:53.921Z,3.65
2019-05-18T23:44:20.706Z,3.80
2019-05-18T23:46:47.558Z,3.50
2019-05-18T23:49:14.396Z,3.90
2019-05-18T23:51:41.218Z,4.10
2019-05-18T23:54:08.065Z,4.27
2019-05-18T23:56:34.847Z,4.62
2019-05-18T23:59:03.280Z,4.30
